sensor_id;sensor_type;location;lat;lon;timestamp;temperature;humidity
25973;DHT22;13765;51.166;4.466;2023-04-25T00:01:38;9.30;99.90
25973;DHT22;13765;51.166;4.466;2023-04-25T00:04:06;9.40;99.90
25973;DHT22;13765;51.166;4.466;2023-04-25T00:06:33;9.40;99.90
25973;DHT22;13765;51.166;4.466;2023-04-25T00:09:02;9.30;99.90
25973;DHT22;13765;51.166;4.466;2023-04-25T00:11:33;9.40;99.90
25973;DHT22;13765;51.166;4.466;2023-04-25T00:13:59;9.30;99.90
25973;DHT22;13765;51.166;4.466;2023-04-25T00:16:29;9.20;99.90
25973;DHT22;13765;51.166;4.466;2023-04-25T00:18:59;9.20;99.90
25973;DHT22;13765;51.166;4.466;2023-04-25T00:21:28;9.20;99.90
25973;DHT22;13765;51.166;4.466;2023-04-25T00:23:55;9.20;99.90
25973;DHT22;13765;51.166;4.466;2023-04-25T00:26:21;9.20;99.90
25973;DHT22;13765;51.166;4.466;2023-04-25T00:28:47;9.00;99.90
25973;DHT22;13765;51.166;4.466;2023-04-25T00:31:13;9.00;99.90
25973;DHT22;13765;51.166;4.466;2023-04-25T00:33:39;9.00;99.90
25973;DHT22;13765;51.166;4.466;2023-04-25T00:36:07;9.00;99.90
25973;DHT22;13765;51.166;4.466;2023-04-25T00:38:35;9.00;99.90
25973;DHT22;13765;51.166;4.466;2023-04-25T00:41:03;8.90;99.90
25973;DHT22;13765;51.166;4.466;2023-04-25T00:43:30;8.90;99.90
25973;DHT22;13765;51.166;4.466;2023-04-25T00:46:00;8.90;99.90
25973;DHT22;13765;51.166;4.466;2023-04-25T00:48:25;9.00;99.90
25973;DHT22;13765;51.166;4.466;2023-04-25T00:50:55;9.00;99.90
25973;DHT22;13765;51.166;4.466;2023-04-25T00:53:26;9.00;99.90
25973;DHT22;13765;51.166;4.466;2023-04-25T00:55:55;9.10;99.90
25973;DHT22;13765;51.166;4.466;2023-04-25T00:58:23;9.00;99.90
25973;DHT22;13765;51.166;4.466;2023-04-25T01:00:51;9.00;99.90
25973;DHT22;13765;51.166;4.466;2023-04-25T01:03:19;9.00;99.90
25973;DHT22;13765;51.166;4.466;2023-04-25T01:05:46;9.00;99.90
25973;DHT22;13765;51.166;4.466;2023-04-25T01:08:13;9.10;99.90
25973;DHT22;13765;51.166;4.466;2023-04-25T01:10:39;9.10;99.90
25973;DHT22;13765;51.166;4.466;2023-04-25T01:13:05;9.10;99.90
25973;DHT22;13765;51.166;4.466;2023-04-25T01:15:33;9.10;99.90
25973;DHT22;13765;51.166;4.466;2023-04-25T01:18:01;9.10;99.90
25973;DHT22;13765;51.166;4.466;2023-04-25T01:20:27;9.10;99.90
25973;DHT22;13765;51.166;4.466;2023-04-25T01:22:54;9.00;99.90
25973;DHT22;13765;51.166;4.466;2023-04-25T01:25:23;9.00;99.90
25973;DHT22;13765;51.166;4.466;2023-04-25T01:27:49;8.90;99.90
25973;DHT22;13765;51.166;4.466;2023-04-25T01:30:15;9.00;99.90
25973;DHT22;13765;51.166;4.466;2023-04-25T01:32:42;9.10;99.90
25973;DHT22;13765;51.166;4.466;2023-04-25T01:35:13;9.10;99.90
25973;DHT22;13765;51.166;4.466;2023-04-25T01:37:42;9.00;99.90
25973;DHT22;13765;51.166;4.466;2023-04-25T01:40:09;9.10;99.90
25973;DHT22;13765;51.166;4.466;2023-04-25T01:42:38;9.10;99.90
25973;DHT22;13765;51.166;4.466;2023-04-25T01:45:07;9.10;99.90
25973;DHT22;13765;51.166;4.466;2023-04-25T01:47:33;9.20;99.90
25973;DHT22;13765;51.166;4.466;2023-04-25T01:50:01;9.20;99.90
25973;DHT22;13765;51.166;4.466;2023-04-25T01:52:27;9.10;99.90
25973;DHT22;13765;51.166;4.466;2023-04-25T01:54:55;9.00;99.90
25973;DHT22;13765;51.166;4.466;2023-04-25T01:57:24;8.80;99.90
25973;DHT22;13765;51.166;4.466;2023-04-25T01:59:58;8.80;99.90
25973;DHT22;13765;51.166;4.466;2023-04-25T02:02:28;8.90;99.90
25973;DHT22;13765;51.166;4.466;2023-04-25T02:04:55;9.00;99.90
25973;DHT22;13765;51.166;4.466;2023-04-25T02:07:21;9.00;99.90
25973;DHT22;13765;51.166;4.466;2023-04-25T02:09:47;9.10;99.90
25973;DHT22;13765;51.166;4.466;2023-04-25T02:12:13;9.00;99.90
25973;DHT22;13765;51.166;4.466;2023-04-25T02:14:38;8.90;99.90
25973;DHT22;13765;51.166;4.466;2023-04-25T02:17:07;8.90;99.90
25973;DHT22;13765;51.166;4.466;2023-04-25T02:19:32;8.90;99.90
25973;DHT22;13765;51.166;4.466;2023-04-25T02:21:58;8.90;99.90
25973;DHT22;13765;51.166;4.466;2023-04-25T02:24:24;8.90;99.90
25973;DHT22;13765;51.166;4.466;2023-04-25T02:26:53;8.80;99.90
25973;DHT22;13765;51.166;4.466;2023-04-25T02:29:20;8.90;99.90
25973;DHT22;13765;51.166;4.466;2023-04-25T02:31:46;8.90;99.90
25973;DHT22;13765;51.166;4.466;2023-04-25T02:34:12;8.90;99.90
25973;DHT22;13765;51.166;4.466;2023-04-25T02:36:37;8.70;99.90
25973;DHT22;13765;51.166;4.466;2023-04-25T02:39:06;8.50;99.90
25973;DHT22;13765;51.166;4.466;2023-04-25T02:41:34;8.50;99.90
25973;DHT22;13765;51.166;4.466;2023-04-25T02:44:04;8.40;99.90
25973;DHT22;13765;51.166;4.466;2023-04-25T02:46:30;8.20;99.90
25973;DHT22;13765;51.166;4.466;2023-04-25T02:48:55;8.20;99.90
25973;DHT22;13765;51.166;4.466;2023-04-25T02:51:21;8.20;99.90
25973;DHT22;13765;51.166;4.466;2023-04-25T02:53:47;8.20;99.90
25973;DHT22;13765;51.166;4.466;2023-04-25T02:56:14;8.30;99.90
25973;DHT22;13765;51.166;4.466;2023-04-25T02:58:43;8.40;99.90
25973;DHT22;13765;51.166;4.466;2023-04-25T03:01:08;8.40;99.90
25973;DHT22;13765;51.166;4.466;2023-04-25T03:03:34;8.40;99.90
25973;DHT22;13765;51.166;4.466;2023-04-25T03:06:00;8.40;99.90
25973;DHT22;13765;51.166;4.466;2023-04-25T03:08:25;8.40;99.90
25973;DHT22;13765;51.166;4.466;2023-04-25T03:10:54;8.40;99.90
25973;DHT22;13765;51.166;4.466;2023-04-25T03:13:25;8.40;99.90
25973;DHT22;13765;51.166;4.466;2023-04-25T03:15:51;8.40;99.90
25973;DHT22;13765;51.166;4.466;2023-04-25T03:18:16;8.40;99.90
25973;DHT22;13765;51.166;4.466;2023-04-25T03:20:42;8.40;99.90
25973;DHT22;13765;51.166;4.466;2023-04-25T03:23:08;8.40;99.90
25973;DHT22;13765;51.166;4.466;2023-04-25T03:25:36;8.30;99.90
25973;DHT22;13765;51.166;4.466;2023-04-25T03:28:04;8.30;99.90
25973;DHT22;13765;51.166;4.466;2023-04-25T03:30:30;8.20;99.90
25973;DHT22;13765;51.166;4.466;2023-04-25T03:32:55;8.20;99.90
25973;DHT22;13765;51.166;4.466;2023-04-25T03:35:21;8.30;99.90
25973;DHT22;13765;51.166;4.466;2023-04-25T03:37:48;8.20;99.90
25973;DHT22;13765;51.166;4.466;2023-04-25T03:40:14;8.20;99.90
25973;DHT22;13765;51.166;4.466;2023-04-25T03:42:40;8.20;99.90
25973;DHT22;13765;51.166;4.466;2023-04-25T03:45:06;8.10;99.90
25973;DHT22;13765;51.166;4.466;2023-04-25T03:47:35;8.10;99.90
25973;DHT22;13765;51.166;4.466;2023-04-25T03:50:00;8.30;99.90
25973;DHT22;13765;51.166;4.466;2023-04-25T03:52:30;8.30;99.90
25973;DHT22;13765;51.166;4.466;2023-04-25T03:54:55;8.30;99.90
25973;DHT22;13765;51.166;4.466;2023-04-25T03:57:21;8.30;99.90
25973;DHT22;13765;51.166;4.466;2023-04-25T03:59:46;8.10;99.90
25973;DHT22;13765;51.166;4.466;2023-04-25T04:02:15;8.20;99.90
25973;DHT22;13765;51.166;4.466;2023-04-25T04:04:42;8.20;99.90
25973;DHT22;13765;51.166;4.466;2023-04-25T04:07:09;8.20;99.90
25973;DHT22;13765;51.166;4.466;2023-04-25T04:09:35;8.20;99.90
25973;DHT22;13765;51.166;4.466;2023-04-25T04:12:01;8.10;99.90
25973;DHT22;13765;51.166;4.466;2023-04-25T04:14:29;8.10;99.90
25973;DHT22;13765;51.166;4.466;2023-04-25T04:16:57;8.10;99.90
25973;DHT22;13765;51.166;4.466;2023-04-25T04:19:25;8.10;99.90
25973;DHT22;13765;51.166;4.466;2023-04-25T04:21:51;8.00;99.90
25973;DHT22;13765;51.166;4.466;2023-04-25T04:24:16;8.10;99.90
25973;DHT22;13765;51.166;4.466;2023-04-25T04:26:42;7.80;99.90
25973;DHT22;13765;51.166;4.466;2023-04-25T04:29:13;7.70;99.90
25973;DHT22;13765;51.166;4.466;2023-04-25T04:31:49;7.80;99.90
25973;DHT22;13765;51.166;4.466;2023-04-25T04:34:16;7.70;99.90
25973;DHT22;13765;51.166;4.466;2023-04-25T04:36:43;7.70;99.90
25973;DHT22;13765;51.166;4.466;2023-04-25T04:39:10;7.70;99.90
25973;DHT22;13765;51.166;4.466;2023-04-25T04:41:40;7.80;99.90
25973;DHT22;13765;51.166;4.466;2023-04-25T04:44:06;7.80;99.90
25973;DHT22;13765;51.166;4.466;2023-04-25T04:46:35;7.80;99.90
25973;DHT22;13765;51.166;4.466;2023-04-25T04:49:08;7.80;99.90
25973;DHT22;13765;51.166;4.466;2023-04-25T04:51:34;7.90;99.90
25973;DHT22;13765;51.166;4.466;2023-04-25T04:54:02;7.90;99.90
25973;DHT22;13765;51.166;4.466;2023-04-25T04:56:30;8.00;99.90
25973;DHT22;13765;51.166;4.466;2023-04-25T04:58:57;8.00;99.90
25973;DHT22;13765;51.166;4.466;2023-04-25T05:01:23;8.00;99.90
25973;DHT22;13765;51.166;4.466;2023-04-25T05:03:49;8.00;99.90
25973;DHT22;13765;51.166;4.466;2023-04-25T05:06:16;8.00;99.90
25973;DHT22;13765;51.166;4.466;2023-04-25T05:08:45;8.10;99.90
25973;DHT22;13765;51.166;4.466;2023-04-25T05:11:12;8.10;99.90
25973;DHT22;13765;51.166;4.466;2023-04-25T05:13:40;8.10;99.90
25973;DHT22;13765;51.166;4.466;2023-04-25T05:16:11;8.20;99.90
25973;DHT22;13765;51.166;4.466;2023-04-25T05:18:36;8.20;99.90
25973;DHT22;13765;51.166;4.466;2023-04-25T05:21:02;8.20;99.90
25973;DHT22;13765;51.166;4.466;2023-04-25T05:23:28;8.20;99.90
25973;DHT22;13765;51.166;4.466;2023-04-25T05:25:55;8.20;99.90
25973;DHT22;13765;51.166;4.466;2023-04-25T05:28:24;8.20;99.90
25973;DHT22;13765;51.166;4.466;2023-04-25T05:30:52;8.30;99.90
25973;DHT22;13765;51.166;4.466;2023-04-25T05:33:18;8.40;99.90
25973;DHT22;13765;51.166;4.466;2023-04-25T05:35:46;8.30;99.90
25973;DHT22;13765;51.166;4.466;2023-04-25T05:38:12;8.30;99.90
25973;DHT22;13765;51.166;4.466;2023-04-25T05:40:40;8.30;99.90
25973;DHT22;13765;51.166;4.466;2023-04-25T05:43:06;8.20;99.90
25973;DHT22;13765;51.166;4.466;2023-04-25T05:45:32;8.30;99.90
25973;DHT22;13765;51.166;4.466;2023-04-25T05:47:58;8.40;99.90
25973;DHT22;13765;51.166;4.466;2023-04-25T05:50:23;8.40;99.90
25973;DHT22;13765;51.166;4.466;2023-04-25T05:52:50;8.40;99.90
25973;DHT22;13765;51.166;4.466;2023-04-25T05:55:16;8.40;99.90
25973;DHT22;13765;51.166;4.466;2023-04-25T05:57:44;8.50;99.90
25973;DHT22;13765;51.166;4.466;2023-04-25T06:00:12;8.50;99.90
25973;DHT22;13765;51.166;4.466;2023-04-25T06:02:38;8.60;99.90
25973;DHT22;13765;51.166;4.466;2023-04-25T06:05:06;8.70;99.90
25973;DHT22;13765;51.166;4.466;2023-04-25T06:07:34;8.90;99.90
25973;DHT22;13765;51.166;4.466;2023-04-25T06:10:00;9.00;99.90
25973;DHT22;13765;51.166;4.466;2023-04-25T06:12:26;9.10;99.90
25973;DHT22;13765;51.166;4.466;2023-04-25T06:14:52;9.30;99.90
25973;DHT22;13765;51.166;4.466;2023-04-25T06:17:17;9.30;99.90
25973;DHT22;13765;51.166;4.466;2023-04-25T06:19:43;9.40;99.90
25973;DHT22;13765;51.166;4.466;2023-04-25T06:22:09;9.40;99.90
25973;DHT22;13765;51.166;4.466;2023-04-25T06:24:35;9.40;99.90
25973;DHT22;13765;51.166;4.466;2023-04-25T06:27:01;9.40;99.90
25973;DHT22;13765;51.166;4.466;2023-04-25T06:29:26;9.40;99.90
25973;DHT22;13765;51.166;4.466;2023-04-25T06:31:52;9.30;99.90
25973;DHT22;13765;51.166;4.466;2023-04-25T06:34:18;9.30;99.90
25973;DHT22;13765;51.166;4.466;2023-04-25T06:36:43;9.40;99.90
25973;DHT22;13765;51.166;4.466;2023-04-25T06:39:10;9.50;99.90
25973;DHT22;13765;51.166;4.466;2023-04-25T06:41:36;9.50;99.90
25973;DHT22;13765;51.166;4.466;2023-04-25T06:44:01;9.50;99.90
25973;DHT22;13765;51.166;4.466;2023-04-25T06:46:29;9.40;99.90
25973;DHT22;13765;51.166;4.466;2023-04-25T06:48:55;9.30;99.90
25973;DHT22;13765;51.166;4.466;2023-04-25T06:51:21;9.30;99.90
25973;DHT22;13765;51.166;4.466;2023-04-25T06:53:46;9.10;99.90
25973;DHT22;13765;51.166;4.466;2023-04-25T06:56:12;8.90;99.90
25973;DHT22;13765;51.166;4.466;2023-04-25T06:58:41;8.70;99.90
25973;DHT22;13765;51.166;4.466;2023-04-25T07:01:09;8.80;99.90
25973;DHT22;13765;51.166;4.466;2023-04-25T07:03:37;8.80;99.90
25973;DHT22;13765;51.166;4.466;2023-04-25T07:06:06;8.80;99.90
25973;DHT22;13765;51.166;4.466;2023-04-25T07:08:31;8.80;99.90
25973;DHT22;13765;51.166;4.466;2023-04-25T07:10:57;8.90;99.90
25973;DHT22;13765;51.166;4.466;2023-04-25T07:13:23;8.90;99.90
25973;DHT22;13765;51.166;4.466;2023-04-25T07:15:48;9.00;99.90
25973;DHT22;13765;51.166;4.466;2023-04-25T07:18:14;9.20;99.90
25973;DHT22;13765;51.166;4.466;2023-04-25T07:20:40;9.40;99.90
25973;DHT22;13765;51.166;4.466;2023-04-25T07:23:08;9.50;99.90
25973;DHT22;13765;51.166;4.466;2023-04-25T07:25:34;9.60;99.90
25973;DHT22;13765;51.166;4.466;2023-04-25T07:28:00;9.50;99.90
25973;DHT22;13765;51.166;4.466;2023-04-25T07:30:26;9.50;99.90
25973;DHT22;13765;51.166;4.466;2023-04-25T07:32:52;9.60;99.90
25973;DHT22;13765;51.166;4.466;2023-04-25T07:35:17;9.60;99.90
25973;DHT22;13765;51.166;4.466;2023-04-25T07:37:46;9.70;99.90
25973;DHT22;13765;51.166;4.466;2023-04-25T07:40:12;9.80;99.90
25973;DHT22;13765;51.166;4.466;2023-04-25T07:42:38;10.10;99.90
25973;DHT22;13765;51.166;4.466;2023-04-25T07:45:06;10.30;99.90
25973;DHT22;13765;51.166;4.466;2023-04-25T07:47:35;10.70;99.90
25973;DHT22;13765;51.166;4.466;2023-04-25T07:50:01;11.40;99.90
25973;DHT22;13765;51.166;4.466;2023-04-25T07:52:26;11.50;99.90
25973;DHT22;13765;51.166;4.466;2023-04-25T07:54:52;12.00;99.90
25973;DHT22;13765;51.166;4.466;2023-04-25T07:57:20;11.70;99.90
25973;DHT22;13765;51.166;4.466;2023-04-25T07:59:49;12.10;99.90
25973;DHT22;13765;51.166;4.466;2023-04-25T08:27:06;10.30;99.90
25973;DHT22;13765;51.166;4.466;2023-04-25T08:29:33;10.00;99.90
25973;DHT22;13765;51.166;4.466;2023-04-25T08:31:59;9.70;99.90
25973;DHT22;13765;51.166;4.466;2023-04-25T08:34:25;9.70;99.90
25973;DHT22;13765;51.166;4.466;2023-04-25T08:36:53;9.60;99.90
25973;DHT22;13765;51.166;4.466;2023-04-25T08:39:20;9.80;99.90
25973;DHT22;13765;51.166;4.466;2023-04-25T08:41:46;10.10;99.90
25973;DHT22;13765;51.166;4.466;2023-04-25T08:44:13;10.80;99.90
25973;DHT22;13765;51.166;4.466;2023-04-25T08:46:41;11.30;99.90
25973;DHT22;13765;51.166;4.466;2023-04-25T08:49:09;11.40;99.90
25973;DHT22;13765;51.166;4.466;2023-04-25T08:51:45;11.50;99.90
25973;DHT22;13765;51.166;4.466;2023-04-25T08:54:16;11.70;99.90
25973;DHT22;13765;51.166;4.466;2023-04-25T08:56:47;11.90;99.90
25973;DHT22;13765;51.166;4.466;2023-04-25T08:59:13;12.10;99.90
25973;DHT22;13765;51.166;4.466;2023-04-25T09:01:40;13.10;99.90
25973;DHT22;13765;51.166;4.466;2023-04-25T09:04:06;13.60;99.90
25973;DHT22;13765;51.166;4.466;2023-04-25T09:06:32;13.70;99.90
25973;DHT22;13765;51.166;4.466;2023-04-25T09:09:08;13.40;99.90
25973;DHT22;13765;51.166;4.466;2023-04-25T09:11:37;13.00;99.90
25973;DHT22;13765;51.166;4.466;2023-04-25T09:14:35;13.20;99.90
25973;DHT22;13765;51.166;4.466;2023-04-25T09:17:03;13.90;99.90
25973;DHT22;13765;51.166;4.466;2023-04-25T09:19:30;14.50;99.90
25973;DHT22;13765;51.166;4.466;2023-04-25T09:21:58;14.80;99.90
25973;DHT22;13765;51.166;4.466;2023-04-25T09:24:43;14.50;99.90
25973;DHT22;13765;51.166;4.466;2023-04-25T09:27:13;14.60;99.90
25973;DHT22;13765;51.166;4.466;2023-04-25T09:29:43;14.90;99.90
25973;DHT22;13765;51.166;4.466;2023-04-25T09:32:18;15.20;99.90
25973;DHT22;13765;51.166;4.466;2023-04-25T09:34:55;14.80;99.90
25973;DHT22;13765;51.166;4.466;2023-04-25T09:37:28;14.40;99.90
25973;DHT22;13765;51.166;4.466;2023-04-25T09:39:57;14.00;99.90
25973;DHT22;13765;51.166;4.466;2023-04-25T09:42:25;14.20;99.90
25973;DHT22;13765;51.166;4.466;2023-04-25T09:44:54;14.10;99.90
25973;DHT22;13765;51.166;4.466;2023-04-25T09:47:24;14.10;99.90
25973;DHT22;13765;51.166;4.466;2023-04-25T09:49:51;14.40;99.90
25973;DHT22;13765;51.166;4.466;2023-04-25T09:52:21;14.50;99.90
25973;DHT22;13765;51.166;4.466;2023-04-25T09:54:48;14.30;99.90
25973;DHT22;13765;51.166;4.466;2023-04-25T09:57:24;14.20;99.90
25973;DHT22;13765;51.166;4.466;2023-04-25T09:59:51;14.00;99.90
25973;DHT22;13765;51.166;4.466;2023-04-25T10:02:23;13.70;99.90
25973;DHT22;13765;51.166;4.466;2023-04-25T10:04:51;13.50;99.90
25973;DHT22;13765;51.166;4.466;2023-04-25T10:07:22;13.40;99.90
25973;DHT22;13765;51.166;4.466;2023-04-25T10:09:58;13.20;99.90
25973;DHT22;13765;51.166;4.466;2023-04-25T10:12:28;13.00;99.90
25973;DHT22;13765;51.166;4.466;2023-04-25T10:14:54;12.90;99.90
25973;DHT22;13765;51.166;4.466;2023-04-25T10:17:21;12.80;99.90
25973;DHT22;13765;51.166;4.466;2023-04-25T10:19:49;12.70;99.90
25973;DHT22;13765;51.166;4.466;2023-04-25T10:22:37;12.80;99.90
25973;DHT22;13765;51.166;4.466;2023-04-25T10:25:04;12.80;99.90
25973;DHT22;13765;51.166;4.466;2023-04-25T10:27:30;12.50;99.90
25973;DHT22;13765;51.166;4.466;2023-04-25T10:32:32;12.30;99.90
25973;DHT22;13765;51.166;4.466;2023-04-25T10:35:19;12.10;99.90
25973;DHT22;13765;51.166;4.466;2023-04-25T10:38:08;12.10;99.90
25973;DHT22;13765;51.166;4.466;2023-04-25T10:40:36;12.20;99.90
25973;DHT22;13765;51.166;4.466;2023-04-25T10:45:56;12.10;99.90
25973;DHT22;13765;51.166;4.466;2023-04-25T10:48:31;12.40;99.90
25973;DHT22;13765;51.166;4.466;2023-04-25T10:51:10;12.80;99.90
25973;DHT22;13765;51.166;4.466;2023-04-25T10:53:36;13.00;99.90
25973;DHT22;13765;51.166;4.466;2023-04-25T10:56:10;13.20;99.90
25973;DHT22;13765;51.166;4.466;2023-04-25T10:58:38;13.30;99.90
25973;DHT22;13765;51.166;4.466;2023-04-25T11:01:06;13.10;99.90
25973;DHT22;13765;51.166;4.466;2023-04-25T11:03:32;13.00;99.90
25973;DHT22;13765;51.166;4.466;2023-04-25T11:05:59;13.50;99.90
25973;DHT22;13765;51.166;4.466;2023-04-25T11:08:45;13.90;99.90
25973;DHT22;13765;51.166;4.466;2023-04-25T11:11:12;14.50;99.90
25973;DHT22;13765;51.166;4.466;2023-04-25T11:13:40;14.40;99.90
25973;DHT22;13765;51.166;4.466;2023-04-25T11:16:08;14.60;99.90
25973;DHT22;13765;51.166;4.466;2023-04-25T11:18:34;14.80;99.90
25973;DHT22;13765;51.166;4.466;2023-04-25T11:21:00;15.30;99.90
25973;DHT22;13765;51.166;4.466;2023-04-25T11:23:28;15.20;99.90
25973;DHT22;13765;51.166;4.466;2023-04-25T11:25:55;14.70;99.90
25973;DHT22;13765;51.166;4.466;2023-04-25T11:28:25;14.90;99.90
25973;DHT22;13765;51.166;4.466;2023-04-25T11:30:50;14.70;99.90
25973;DHT22;13765;51.166;4.466;2023-04-25T11:33:17;14.90;99.90
25973;DHT22;13765;51.166;4.466;2023-04-25T11:35:43;15.20;99.90
25973;DHT22;13765;51.166;4.466;2023-04-25T11:38:08;15.60;99.90
25973;DHT22;13765;51.166;4.466;2023-04-25T11:40:36;15.80;99.90
25973;DHT22;13765;51.166;4.466;2023-04-25T11:43:04;15.80;99.90
25973;DHT22;13765;51.166;4.466;2023-04-25T11:45:30;16.20;99.90
25973;DHT22;13765;51.166;4.466;2023-04-25T11:47:58;16.40;99.90
25973;DHT22;13765;51.166;4.466;2023-04-25T11:50:24;16.30;99.90
25973;DHT22;13765;51.166;4.466;2023-04-25T11:52:50;16.20;99.90
25973;DHT22;13765;51.166;4.466;2023-04-25T11:55:22;16.10;99.90
25973;DHT22;13765;51.166;4.466;2023-04-25T11:57:49;15.80;99.90
25973;DHT22;13765;51.166;4.466;2023-04-25T12:00:20;15.90;99.90
25973;DHT22;13765;51.166;4.466;2023-04-25T12:02:54;15.40;99.90
25973;DHT22;13765;51.166;4.466;2023-04-25T12:05:24;15.50;99.90
25973;DHT22;13765;51.166;4.466;2023-04-25T12:07:50;15.00;99.90
25973;DHT22;13765;51.166;4.466;2023-04-25T12:10:17;14.50;99.90
25973;DHT22;13765;51.166;4.466;2023-04-25T12:12:47;14.40;99.90
25973;DHT22;13765;51.166;4.466;2023-04-25T12:17:45;14.20;99.90
25973;DHT22;13765;51.166;4.466;2023-04-25T12:20:16;14.50;99.90
25973;DHT22;13765;51.166;4.466;2023-04-25T12:22:46;14.80;99.90
25973;DHT22;13765;51.166;4.466;2023-04-25T12:25:13;14.60;99.90
25973;DHT22;13765;51.166;4.466;2023-04-25T12:27:39;14.30;99.90
25973;DHT22;13765;51.166;4.466;2023-04-25T12:30:08;14.40;99.90
25973;DHT22;13765;51.166;4.466;2023-04-25T12:32:34;14.40;99.90
25973;DHT22;13765;51.166;4.466;2023-04-25T12:34:59;14.70;99.90
25973;DHT22;13765;51.166;4.466;2023-04-25T12:37:25;15.20;99.90
25973;DHT22;13765;51.166;4.466;2023-04-25T12:39:51;15.50;99.90
25973;DHT22;13765;51.166;4.466;2023-04-25T12:42:17;15.80;99.90
25973;DHT22;13765;51.166;4.466;2023-04-25T12:44:42;15.60;99.90
25973;DHT22;13765;51.166;4.466;2023-04-25T12:47:08;15.60;99.90
25973;DHT22;13765;51.166;4.466;2023-04-25T12:49:34;15.50;99.90
25973;DHT22;13765;51.166;4.466;2023-04-25T12:52:00;15.10;99.90
25973;DHT22;13765;51.166;4.466;2023-04-25T12:54:25;15.60;99.90
25973;DHT22;13765;51.166;4.466;2023-04-25T12:56:51;15.90;99.90
25973;DHT22;13765;51.166;4.466;2023-04-25T12:59:17;15.50;99.90
25973;DHT22;13765;51.166;4.466;2023-04-25T13:01:43;14.80;99.90
25973;DHT22;13765;51.166;4.466;2023-04-25T13:04:13;14.60;99.90
25973;DHT22;13765;51.166;4.466;2023-04-25T13:06:41;14.50;99.90
25973;DHT22;13765;51.166;4.466;2023-04-25T13:09:07;14.00;99.90
25973;DHT22;13765;51.166;4.466;2023-04-25T13:11:33;13.70;99.90
25973;DHT22;13765;51.166;4.466;2023-04-25T13:14:00;13.70;99.90
25973;DHT22;13765;51.166;4.466;2023-04-25T13:16:26;13.80;99.90
25973;DHT22;13765;51.166;4.466;2023-04-25T13:18:52;13.60;99.90
25973;DHT22;13765;51.166;4.466;2023-04-25T13:21:21;13.80;99.90
25973;DHT22;13765;51.166;4.466;2023-04-25T13:23:47;14.20;99.90
25973;DHT22;13765;51.166;4.466;2023-04-25T13:26:12;14.30;99.90
25973;DHT22;13765;51.166;4.466;2023-04-25T13:28:38;14.50;99.90
25973;DHT22;13765;51.166;4.466;2023-04-25T13:31:05;14.60;99.90
25973;DHT22;13765;51.166;4.466;2023-04-25T13:33:33;14.50;99.90
25973;DHT22;13765;51.166;4.466;2023-04-25T13:36:00;14.50;99.90
25973;DHT22;13765;51.166;4.466;2023-04-25T13:38:26;14.90;99.90
25973;DHT22;13765;51.166;4.466;2023-04-25T13:40:54;15.00;99.90
25973;DHT22;13765;51.166;4.466;2023-04-25T13:43:20;14.80;99.90
25973;DHT22;13765;51.166;4.466;2023-04-25T13:45:52;14.10;99.90
25973;DHT22;13765;51.166;4.466;2023-04-25T13:48:23;13.80;99.90
25973;DHT22;13765;51.166;4.466;2023-04-25T13:50:49;13.70;99.90
25973;DHT22;13765;51.166;4.466;2023-04-25T13:53:15;14.10;99.90
25973;DHT22;13765;51.166;4.466;2023-04-25T13:55:43;14.00;99.90
25973;DHT22;13765;51.166;4.466;2023-04-25T13:58:08;14.60;99.90
25973;DHT22;13765;51.166;4.466;2023-04-25T14:00:39;14.80;99.90
25973;DHT22;13765;51.166;4.466;2023-04-25T14:03:07;15.20;99.90
25973;DHT22;13765;51.166;4.466;2023-04-25T14:05:36;15.50;99.90
25973;DHT22;13765;51.166;4.466;2023-04-25T14:08:08;15.50;99.90
25973;DHT22;13765;51.166;4.466;2023-04-25T14:10:35;15.40;99.90
25973;DHT22;13765;51.166;4.466;2023-04-25T14:13:01;15.30;99.90
25973;DHT22;13765;51.166;4.466;2023-04-25T14:15:31;14.80;99.90
25973;DHT22;13765;51.166;4.466;2023-04-25T14:17:57;14.50;99.90
25973;DHT22;13765;51.166;4.466;2023-04-25T14:20:22;15.20;99.90
25973;DHT22;13765;51.166;4.466;2023-04-25T14:22:49;15.40;99.90
25973;DHT22;13765;51.166;4.466;2023-04-25T14:25:15;15.70;99.90
25973;DHT22;13765;51.166;4.466;2023-04-25T14:27:42;15.70;99.90
25973;DHT22;13765;51.166;4.466;2023-04-25T14:30:12;15.10;99.90
25973;DHT22;13765;51.166;4.466;2023-04-25T14:32:38;15.30;99.90
25973;DHT22;13765;51.166;4.466;2023-04-25T14:35:04;15.40;99.90
25973;DHT22;13765;51.166;4.466;2023-04-25T14:37:31;15.50;99.90
25973;DHT22;13765;51.166;4.466;2023-04-25T14:39:57;15.40;99.90
25973;DHT22;13765;51.166;4.466;2023-04-25T14:42:23;15.00;99.90
25973;DHT22;13765;51.166;4.466;2023-04-25T14:44:53;15.00;99.90
25973;DHT22;13765;51.166;4.466;2023-04-25T14:47:22;14.90;99.90
25973;DHT22;13765;51.166;4.466;2023-04-25T14:49:47;14.70;99.90
25973;DHT22;13765;51.166;4.466;2023-04-25T14:52:19;14.60;99.90
25973;DHT22;13765;51.166;4.466;2023-04-25T14:54:46;14.40;99.90
25973;DHT22;13765;51.166;4.466;2023-04-25T14:57:14;14.20;99.90
25973;DHT22;13765;51.166;4.466;2023-04-25T14:59:43;14.20;99.90
25973;DHT22;13765;51.166;4.466;2023-04-25T15:02:13;13.90;99.90
25973;DHT22;13765;51.166;4.466;2023-04-25T15:04:39;13.90;99.90
25973;DHT22;13765;51.166;4.466;2023-04-25T15:07:05;14.00;99.90
25973;DHT22;13765;51.166;4.466;2023-04-25T15:09:32;14.00;99.90
25973;DHT22;13765;51.166;4.466;2023-04-25T15:11:58;13.70;99.90
25973;DHT22;13765;51.166;4.466;2023-04-25T15:14:24;14.00;99.90
25973;DHT22;13765;51.166;4.466;2023-04-25T15:16:50;13.80;99.90
25973;DHT22;13765;51.166;4.466;2023-04-25T15:19:15;13.60;99.90
25973;DHT22;13765;51.166;4.466;2023-04-25T15:21:41;13.60;99.90
25973;DHT22;13765;51.166;4.466;2023-04-25T15:24:07;13.80;99.90
25973;DHT22;13765;51.166;4.466;2023-04-25T15:26:50;13.90;99.90
25973;DHT22;13765;51.166;4.466;2023-04-25T15:29:19;14.10;99.90
25973;DHT22;13765;51.166;4.466;2023-04-25T15:31:45;14.20;99.90
25973;DHT22;13765;51.166;4.466;2023-04-25T15:34:11;13.90;99.90
25973;DHT22;13765;51.166;4.466;2023-04-25T15:36:36;13.40;99.90
25973;DHT22;13765;51.166;4.466;2023-04-25T15:39:02;13.50;99.90
25973;DHT22;13765;51.166;4.466;2023-04-25T15:41:31;13.60;99.90
25973;DHT22;13765;51.166;4.466;2023-04-25T15:43:59;13.70;99.90
25973;DHT22;13765;51.166;4.466;2023-04-25T15:46:26;13.30;99.90
25973;DHT22;13765;51.166;4.466;2023-04-25T15:48:51;13.30;99.90
25973;DHT22;13765;51.166;4.466;2023-04-25T15:51:17;13.50;99.90
25973;DHT22;13765;51.166;4.466;2023-04-25T15:53:45;13.70;99.90
25973;DHT22;13765;51.166;4.466;2023-04-25T15:56:11;13.60;99.90
25973;DHT22;13765;51.166;4.466;2023-04-25T15:58:37;13.50;99.90
25973;DHT22;13765;51.166;4.466;2023-04-25T16:01:02;13.30;99.90
25973;DHT22;13765;51.166;4.466;2023-04-25T16:03:29;13.20;99.90
25973;DHT22;13765;51.166;4.466;2023-04-25T16:05:56;13.00;99.90
25973;DHT22;13765;51.166;4.466;2023-04-25T16:08:26;13.20;99.90
25973;DHT22;13765;51.166;4.466;2023-04-25T16:10:54;13.10;99.90
25973;DHT22;13765;51.166;4.466;2023-04-25T16:13:21;13.10;99.90